createdAt,value
2022-09-14T00:02:03.673Z,9.90
2022-09-14T00:04:34.115Z,10.70
2022-09-14T00:07:04.388Z,13.10
2022-09-14T00:09:34.848Z,10.90
2022-09-14T00:12:06.716Z,12.40
2022-09-14T00:14:38.888Z,13.40
2022-09-14T00:17:10.634Z,15.50
2022-09-14T00:19:43.406Z,13.60
2022-09-14T00:22:15.358Z,16.30
2022-09-14T00:24:47.899Z,19.90
2022-09-14T00:27:19.529Z,18.10
2022-09-14T00:29:52.941Z,23.70
2022-09-14T00:32:25.011Z,17.10
2022-09-14T00:34:57.946Z,19.20
2022-09-14T00:37:29.482Z,18.60
2022-09-14T00:40:01.986Z,17.50
2022-09-14T00:45:15.961Z,18.70
2022-09-14T00:47:48.420Z,16.90
2022-09-14T00:50:21.968Z,16.10
2022-09-14T00:52:55.364Z,18.30
2022-09-14T00:55:27.200Z,18.10
2022-09-14T00:57:58.720Z,16.30
2022-09-14T01:00:32.034Z,18.50
2022-09-14T01:03:04.761Z,17.70
2022-09-14T01:05:49.008Z,16.40
2022-09-14T01:08:58.531Z,15.00
2022-09-14T01:18:22.694Z,13.20
2022-09-14T01:20:56.696Z,13.00
2022-09-14T01:23:31.587Z,13.60
2022-09-14T01:26:14.302Z,13.90
2022-09-14T01:28:47.238Z,14.00
2022-09-14T01:31:21.246Z,13.60
2022-09-14T01:33:54.746Z,13.20
2022-09-14T01:36:25.757Z,13.60
2022-09-14T01:38:57.107Z,13.80
2022-09-14T01:41:30.177Z,15.10
2022-09-14T01:44:04.161Z,18.70
2022-09-14T01:46:39.122Z,13.30
2022-09-14T01:49:12.793Z,13.20
2022-09-14T01:51:45.685Z,13.00
2022-09-14T01:54:20.642Z,9.10
2022-09-14T01:56:54.247Z,12.70
2022-09-14T01:59:26.990Z,14.30
2022-09-14T02:04:32.378Z,13.40
2022-09-14T02:07:02.831Z,11.50
2022-09-14T02:09:33.238Z,12.70
2022-09-14T02:12:04.047Z,10.60
2022-09-14T02:14:34.745Z,12.90
2022-09-14T02:17:05.260Z,12.00
2022-09-14T02:19:38.683Z,10.40
2022-09-14T02:22:09.100Z,12.20
2022-09-14T02:24:39.331Z,11.40
2022-09-14T02:27:10.117Z,12.10
2022-09-14T02:29:40.882Z,12.80
2022-09-14T02:32:20.457Z,12.60
2022-09-14T02:34:57.376Z,12.00
2022-09-14T02:37:31.693Z,12.50
2022-09-14T02:40:10.654Z,12.80
2022-09-14T02:42:45.032Z,11.50
2022-09-14T02:45:22.723Z,12.70
2022-09-14T02:47:58.033Z,10.40
2022-09-14T02:50:33.706Z,16.40
2022-09-14T02:53:11.322Z,10.20
2022-09-14T02:55:44.672Z,12.40
2022-09-14T02:58:16.228Z,12.10
2022-09-14T03:00:48.336Z,10.50
2022-09-14T03:03:21.817Z,11.90
2022-09-14T03:05:52.152Z,9.40
2022-09-14T03:08:22.644Z,8.80
2022-09-14T03:10:52.964Z,9.10
2022-09-14T03:13:23.626Z,7.20
2022-09-14T03:15:54.167Z,9.80
2022-09-14T03:18:24.530Z,9.00
2022-09-14T03:20:54.874Z,10.90
2022-09-14T03:23:25.179Z,7.30
2022-09-14T03:25:55.482Z,8.40
2022-09-14T03:28:25.793Z,8.50
2022-09-14T03:30:56.191Z,8.80
2022-09-14T03:33:26.934Z,7.90
2022-09-14T03:35:58.399Z,8.60
2022-09-14T03:38:30.156Z,8.00
2022-09-14T03:41:00.584Z,10.10
2022-09-14T03:43:31.368Z,7.40
2022-09-14T03:46:07.852Z,10.20
2022-09-14T03:48:38.318Z,9.00
2022-09-14T03:51:10.181Z,8.20
2022-09-14T03:53:41.001Z,10.30
2022-09-14T03:56:12.681Z,6.70
2022-09-14T03:58:43.436Z,9.40
2022-09-14T04:01:16.173Z,9.70
2022-09-14T04:06:16.620Z,9.60
2022-09-14T04:08:47.625Z,8.10
2022-09-14T04:11:20.459Z,6.60
2022-09-14T04:16:21.438Z,7.20
2022-09-14T04:18:53.030Z,5.50
2022-09-14T04:21:25.155Z,5.50
2022-09-14T04:24:13.972Z,8.00
2022-09-14T04:26:46.174Z,8.00
2022-09-14T04:29:16.571Z,7.70
2022-09-14T04:31:47.319Z,5.80
2022-09-14T04:34:17.814Z,7.80
2022-09-14T04:36:48.301Z,6.50
2022-09-14T04:39:18.943Z,8.00
2022-09-14T04:41:49.549Z,6.50
2022-09-14T04:44:20.007Z,6.20
2022-09-14T04:46:50.339Z,7.70
2022-09-14T04:49:21.591Z,6.10
2022-09-14T04:51:52.316Z,6.00
2022-09-14T04:54:22.629Z,6.70
2022-09-14T04:56:52.924Z,6.80
2022-09-14T04:59:23.243Z,5.60
2022-09-14T05:01:53.656Z,6.60
2022-09-14T05:04:24.191Z,6.70
2022-09-14T05:06:56.116Z,8.80
2022-09-14T05:09:26.513Z,6.50
2022-09-14T05:11:56.870Z,7.10
2022-09-14T05:14:27.396Z,7.70
2022-09-14T05:17:01.176Z,8.90
2022-09-14T05:19:31.718Z,8.20
2022-09-14T05:22:02.096Z,10.90
2022-09-14T05:24:32.493Z,9.00
2022-09-14T05:27:02.973Z,8.20
2022-09-14T05:29:33.577Z,9.70
2022-09-14T05:32:04.329Z,7.90
2022-09-14T05:34:34.932Z,12.50
2022-09-14T05:37:05.296Z,9.20
2022-09-14T05:39:35.623Z,12.10
2022-09-14T05:42:06.189Z,10.80
2022-09-14T05:44:36.571Z,13.40
2022-09-14T05:47:07.106Z,10.90
2022-09-14T05:49:37.667Z,13.20
2022-09-14T05:52:08.089Z,12.70
2022-09-14T05:54:38.460Z,13.50
2022-09-14T05:57:08.812Z,12.70
2022-09-14T05:59:39.096Z,15.10
2022-09-14T06:02:09.939Z,14.00
2022-09-14T06:04:40.402Z,15.50
2022-09-14T06:07:18.334Z,15.20
2022-09-14T06:09:49.956Z,13.30
2022-09-14T06:12:21.558Z,13.60
2022-09-14T06:14:51.824Z,12.70
2022-09-14T06:17:22.151Z,12.70
2022-09-14T06:19:52.426Z,9.70
2022-09-14T06:22:22.728Z,9.80
2022-09-14T06:24:53.634Z,11.30
2022-09-14T06:27:27.270Z,10.60
2022-09-14T06:29:57.565Z,11.30
2022-09-14T06:32:28.251Z,10.90
2022-09-14T06:34:58.594Z,12.00
2022-09-14T06:37:28.916Z,10.90
2022-09-14T06:39:59.345Z,12.30
2022-09-14T06:42:31.554Z,12.40
2022-09-14T06:45:01.888Z,13.70
2022-09-14T06:47:35.116Z,12.80
2022-09-14T06:50:06.420Z,11.60
2022-09-14T06:52:38.440Z,14.90
2022-09-14T06:55:10.069Z,12.40
2022-09-14T06:57:43.030Z,12.80
2022-09-14T07:00:16.189Z,11.80
2022-09-14T07:02:47.239Z,14.50
2022-09-14T07:05:20.217Z,13.70
2022-09-14T07:07:53.373Z,11.40
2022-09-14T07:10:23.999Z,11.00
2022-09-14T07:12:54.609Z,13.40
2022-09-14T07:15:25.021Z,10.80
2022-09-14T07:17:55.788Z,10.90
2022-09-14T07:20:26.508Z,9.90
2022-09-14T07:22:56.921Z,12.00
2022-09-14T07:25:27.310Z,16.00
2022-09-14T07:28:00.686Z,13.00
2022-09-14T07:30:31.154Z,10.50
2022-09-14T07:33:01.492Z,12.30
2022-09-14T07:35:32.047Z,11.00
2022-09-14T07:38:02.403Z,12.60
2022-09-14T07:40:32.815Z,8.60
2022-09-14T07:43:03.173Z,10.70
2022-09-14T07:45:33.855Z,12.00
2022-09-14T07:48:04.705Z,10.50
2022-09-14T07:50:35.089Z,9.40
2022-09-14T07:53:05.413Z,9.30
2022-09-14T07:55:36.759Z,9.00
2022-09-14T07:58:07.232Z,8.50
2022-09-14T08:00:37.842Z,12.80
2022-09-14T08:03:08.698Z,9.70
2022-09-14T08:05:39.081Z,8.90
2022-09-14T08:08:09.620Z,8.60
2022-09-14T08:10:40.176Z,9.80
2022-09-14T08:19:07.542Z,10.20
2022-09-14T08:21:39.857Z,14.00
2022-09-14T08:24:17.508Z,10.40
2022-09-14T08:26:48.370Z,7.70
2022-09-14T08:29:19.942Z,7.70
2022-09-14T08:31:52.030Z,8.60
2022-09-14T08:34:22.693Z,9.10
2022-09-14T08:36:53.063Z,10.50
2022-09-14T08:39:23.572Z,8.90
2022-09-14T08:41:56.582Z,9.80
2022-09-14T08:44:31.569Z,11.40
2022-09-14T08:47:04.310Z,11.90
2022-09-14T08:52:17.903Z,13.10
2022-09-14T08:54:51.125Z,14.70
2022-09-14T08:57:27.159Z,13.20
2022-09-14T09:00:05.389Z,13.00
2022-09-14T09:02:44.427Z,10.90
2022-09-14T09:05:26.735Z,14.60
2022-09-14T09:08:03.996Z,17.90
2022-09-14T09:10:34.851Z,15.00
2022-09-14T09:13:07.887Z,14.50
2022-09-14T09:15:43.471Z,14.20
2022-09-14T09:18:16.758Z,13.80
2022-09-14T09:20:49.183Z,12.00
2022-09-14T09:23:21.648Z,12.70
2022-09-14T09:25:58.921Z,15.30
2022-09-14T09:28:30.254Z,12.90
2022-09-14T09:31:04.932Z,13.70
2022-09-14T09:33:44.471Z,12.70
2022-09-14T09:36:19.971Z,12.60
2022-09-14T09:45:09.981Z,14.30
2022-09-14T09:47:42.457Z,12.50
2022-09-14T09:50:21.503Z,10.70
2022-09-14T09:52:53.655Z,8.80
2022-09-14T09:55:27.067Z,11.30
2022-09-14T09:57:57.390Z,9.40
2022-09-14T10:00:29.845Z,11.00
2022-09-14T10:03:02.454Z,10.80
2022-09-14T10:08:06.949Z,11.80
2022-09-14T10:10:46.212Z,14.30
2022-09-14T10:13:26.775Z,15.00
2022-09-14T10:16:08.223Z,12.50
2022-09-14T10:18:48.958Z,13.40
2022-09-14T10:21:20.799Z,12.80
2022-09-14T10:24:05.197Z,14.20
2022-09-14T10:26:38.064Z,10.50
2022-09-14T10:29:31.896Z,11.80
2022-09-14T10:32:06.421Z,13.60
2022-09-14T10:34:36.819Z,12.50
2022-09-14T10:37:32.023Z,12.80
2022-09-14T10:40:16.257Z,14.70
2022-09-14T10:42:53.955Z,15.60
2022-09-14T10:45:31.441Z,11.90
2022-09-14T10:48:23.870Z,11.70
2022-09-14T10:51:02.613Z,11.00
2022-09-14T10:53:43.583Z,13.40
2022-09-14T10:56:19.011Z,11.60
2022-09-14T10:59:04.067Z,14.10
2022-09-14T11:01:45.088Z,15.70
2022-09-14T11:04:24.315Z,12.00
2022-09-14T11:07:01.686Z,11.70
2022-09-14T11:09:38.446Z,12.10
2022-09-14T11:12:11.288Z,10.20
2022-09-14T11:14:49.034Z,12.40
2022-09-14T11:17:30.097Z,11.10
2022-09-14T11:20:19.295Z,11.40
2022-09-14T11:22:55.308Z,12.40
2022-09-14T11:25:28.195Z,12.20
2022-09-14T11:28:03.365Z,11.10
2022-09-14T11:30:39.491Z,12.00
2022-09-14T11:33:14.471Z,14.10
2022-09-14T11:35:48.501Z,13.90
2022-09-14T11:38:21.996Z,13.10
2022-09-14T11:40:56.275Z,11.00
2022-09-14T11:43:30.928Z,13.90
2022-09-14T11:46:06.812Z,13.10
2022-09-14T11:48:43.728Z,13.80
2022-09-14T11:51:18.068Z,16.30
2022-09-14T11:53:49.259Z,16.30
2022-09-14T11:56:27.313Z,12.20
2022-09-14T11:59:01.648Z,11.80
2022-09-14T12:01:36.802Z,12.00
2022-09-14T12:04:12.959Z,13.70
2022-09-14T12:06:58.990Z,11.80
2022-09-14T12:09:53.611Z,14.60
2022-09-14T12:12:36.014Z,16.10
2022-09-14T12:15:13.839Z,14.20
2022-09-14T12:17:45.192Z,13.90
2022-09-14T12:20:42.701Z,11.90
2022-09-14T12:23:28.630Z,14.00
2022-09-14T12:26:05.566Z,11.90
2022-09-14T12:28:50.837Z,12.40
2022-09-14T12:32:06.977Z,16.60
2022-09-14T12:34:37.524Z,14.70
2022-09-14T12:37:33.172Z,16.70
2022-09-14T12:40:36.619Z,16.50
2022-09-14T12:43:44.061Z,16.70
2022-09-14T12:46:34.336Z,13.00
2022-09-14T12:49:05.514Z,11.00
2022-09-14T12:51:45.592Z,14.00
2022-09-14T12:54:26.010Z,13.00
2022-09-14T12:57:07.072Z,13.80
2022-09-14T12:59:42.727Z,15.50
2022-09-14T13:02:50.515Z,13.80
2022-09-14T13:05:23.786Z,12.60
2022-09-14T13:07:54.290Z,13.70
2022-09-14T13:10:28.708Z,11.90
2022-09-14T13:12:59.057Z,14.80
2022-09-14T13:15:32.616Z,15.70
2022-09-14T13:18:05.285Z,12.50
2022-09-14T13:23:19.227Z,13.40
2022-09-14T13:25:49.784Z,13.50
2022-09-14T13:28:20.936Z,12.90
2022-09-14T13:30:58.034Z,11.80
2022-09-14T13:33:28.561Z,12.40
2022-09-14T13:36:01.206Z,16.70
2022-09-14T13:41:08.600Z,13.40
2022-09-14T13:43:39.592Z,13.40
2022-09-14T13:46:11.499Z,13.70
2022-09-14T13:48:43.329Z,12.80
2022-09-14T13:51:15.776Z,12.60
2022-09-14T13:53:48.649Z,18.60
2022-09-14T13:56:21.154Z,12.90
2022-09-14T13:58:52.702Z,14.20
2022-09-14T14:01:28.392Z,13.10
2022-09-14T14:03:59.026Z,9.80
2022-09-14T14:06:30.862Z,11.30
2022-09-14T14:09:03.420Z,14.00
2022-09-14T14:11:37.538Z,15.10
2022-09-14T14:14:30.145Z,11.90
2022-09-14T14:17:24.970Z,10.80
2022-09-14T14:19:56.624Z,11.50
2022-09-14T14:22:29.587Z,10.00
2022-09-14T14:25:15.763Z,10.30
2022-09-14T14:27:48.087Z,10.70
2022-09-14T14:30:23.836Z,9.70
2022-09-14T14:32:55.919Z,7.20
2022-09-14T14:35:29.385Z,6.90
2022-09-14T14:38:00.470Z,7.30
2022-09-14T14:40:32.074Z,7.30
2022-09-14T14:43:04.163Z,12.50
2022-09-14T14:45:38.059Z,9.50
2022-09-14T14:48:10.846Z,15.70
2022-09-14T14:53:10.267Z,12.50
2022-09-14T14:55:42.190Z,12.90
2022-09-14T14:58:18.661Z,12.60
2022-09-14T15:00:52.965Z,15.50
2022-09-14T15:03:23.739Z,13.00
2022-09-14T15:05:59.893Z,13.60
2022-09-14T15:08:30.422Z,12.70
2022-09-14T15:11:01.175Z,14.10
2022-09-14T15:13:34.382Z,11.40
2022-09-14T15:16:06.897Z,12.90
2022-09-14T15:21:06.544Z,10.90
2022-09-14T15:23:42.399Z,16.30
2022-09-14T15:26:18.122Z,14.40
2022-09-14T15:28:52.440Z,12.90
2022-09-14T15:31:27.917Z,11.50
2022-09-14T15:34:00.599Z,14.20
2022-09-14T15:39:11.396Z,11.40
2022-09-14T15:41:42.178Z,9.70
2022-09-14T15:44:16.567Z,12.70
2022-09-14T15:46:47.568Z,10.70
2022-09-14T15:49:22.750Z,10.80
2022-09-14T15:51:54.816Z,10.80
2022-09-14T15:54:28.809Z,11.20
2022-09-14T15:57:00.381Z,13.00
2022-09-14T15:59:31.496Z,10.60
2022-09-14T16:02:02.121Z,12.90
2022-09-14T16:04:39.668Z,12.40
2022-09-14T16:07:10.599Z,11.10
2022-09-14T16:09:42.182Z,10.80
2022-09-14T16:12:14.065Z,12.50
2022-09-14T16:14:44.412Z,12.90
2022-09-14T16:17:16.044Z,11.90
2022-09-14T16:19:46.466Z,11.20
2022-09-14T16:22:17.669Z,11.60
2022-09-14T16:25:04.805Z,11.40
2022-09-14T16:27:35.441Z,10.70
2022-09-14T16:30:07.253Z,12.10
2022-09-14T16:32:40.995Z,14.60
2022-09-14T16:35:12.066Z,12.80
2022-09-14T16:37:43.417Z,12.60
2022-09-14T16:40:16.591Z,15.00
2022-09-14T16:42:51.129Z,12.50
2022-09-14T16:45:21.567Z,15.00
2022-09-14T16:47:52.356Z,16.70
2022-09-14T16:50:22.882Z,17.00
2022-09-14T16:52:53.207Z,15.00
2022-09-14T16:55:23.903Z,17.90
2022-09-14T16:57:54.188Z,18.00
2022-09-14T17:00:24.903Z,16.90
2022-09-14T17:02:55.610Z,16.40
2022-09-14T17:05:26.124Z,17.00
2022-09-14T17:07:56.549Z,16.90
2022-09-14T17:10:27.104Z,15.60
2022-09-14T17:13:00.236Z,12.90
2022-09-14T17:15:30.719Z,18.70
2022-09-14T17:18:01.233Z,8.80
2022-09-14T17:20:35.037Z,4.70
2022-09-14T17:23:05.525Z,3.60
2022-09-14T17:25:36.312Z,5.30
2022-09-14T17:28:06.884Z,6.40
2022-09-14T17:30:37.249Z,6.30
2022-09-14T17:33:07.657Z,6.10
2022-09-14T17:35:38.019Z,5.50
2022-09-14T17:38:08.280Z,3.50
2022-09-14T17:40:40.776Z,3.20
2022-09-14T17:43:11.181Z,2.60
2022-09-14T17:45:42.377Z,4.20
2022-09-14T17:48:12.775Z,1.80
2022-09-14T17:50:43.152Z,8.10
2022-09-14T17:53:13.627Z,1.80
2022-09-14T17:55:45.243Z,3.10
2022-09-14T17:58:19.628Z,3.80
2022-09-14T18:00:50.605Z,4.90
2022-09-14T18:03:21.341Z,6.60
2022-09-14T18:05:57.388Z,4.70
2022-09-14T18:08:27.910Z,3.40
2022-09-14T18:11:01.294Z,3.20
2022-09-14T18:13:31.649Z,2.20
2022-09-14T18:16:02.738Z,2.70
2022-09-14T18:18:33.330Z,1.30
2022-09-14T18:21:04.341Z,2.70
2022-09-14T18:23:34.811Z,5.00
2022-09-14T18:26:06.109Z,3.30
2022-09-14T18:28:37.186Z,1.90
2022-09-14T18:31:09.905Z,4.20
2022-09-14T18:36:10.074Z,4.30
2022-09-14T18:38:47.858Z,1.50
2022-09-14T18:41:18.994Z,3.50
2022-09-14T18:43:51.367Z,3.30
2022-09-14T18:46:27.078Z,2.50
2022-09-14T18:48:59.627Z,2.40
2022-09-14T18:51:31.607Z,2.40
2022-09-14T18:54:04.063Z,3.30
2022-09-14T18:56:38.203Z,2.90
2022-09-14T18:59:10.024Z,3.40
2022-09-14T19:01:48.193Z,2.80
2022-09-14T19:04:21.151Z,2.20
2022-09-14T19:06:51.511Z,2.10
2022-09-14T19:09:38.101Z,2.30
2022-09-14T19:12:11.451Z,3.70
2022-09-14T19:14:41.986Z,3.70
2022-09-14T19:17:12.441Z,2.70
2022-09-14T19:19:52.843Z,3.60
2022-09-14T19:22:25.434Z,3.30
2022-09-14T19:24:55.687Z,2.80
2022-09-14T19:27:26.633Z,3.30
2022-09-14T19:29:58.301Z,3.20
2022-09-14T19:32:28.913Z,4.00
2022-09-14T19:34:59.161Z,3.70
2022-09-14T19:37:31.824Z,6.70
2022-09-14T19:40:02.461Z,6.40
2022-09-14T19:42:32.826Z,3.10
2022-09-14T19:45:03.765Z,3.70
2022-09-14T19:47:34.566Z,4.80
2022-09-14T19:50:05.051Z,4.20
2022-09-14T19:52:35.727Z,4.10
2022-09-14T19:55:06.528Z,4.40
2022-09-14T19:57:37.609Z,3.60
2022-09-14T20:00:13.218Z,4.00
2022-09-14T20:02:46.974Z,5.40
2022-09-14T20:05:17.866Z,3.60
2022-09-14T20:07:49.441Z,4.10
2022-09-14T20:10:20.659Z,3.40
2022-09-14T20:12:51.028Z,4.30
2022-09-14T20:15:21.441Z,4.20
2022-09-14T20:17:56.296Z,3.30
2022-09-14T20:20:26.749Z,2.90
2022-09-14T20:22:57.042Z,4.50
2022-09-14T20:25:27.479Z,3.80
2022-09-14T20:27:57.755Z,4.20
2022-09-14T20:30:28.032Z,3.90
2022-09-14T20:32:58.322Z,4.60
2022-09-14T20:35:28.636Z,6.70
2022-09-14T20:37:58.886Z,5.60
2022-09-14T20:40:29.215Z,8.10
2022-09-14T20:43:00.489Z,7.10
2022-09-14T20:45:30.820Z,9.20
2022-09-14T20:48:01.128Z,5.20
2022-09-14T20:50:31.484Z,5.30
2022-09-14T20:53:01.797Z,5.10
2022-09-14T20:55:33.984Z,3.60
2022-09-14T20:58:04.296Z,3.40
2022-09-14T21:00:34.705Z,3.70
2022-09-14T21:03:05.144Z,4.10
2022-09-14T21:05:35.523Z,3.70
2022-09-14T21:08:06.934Z,4.30
2022-09-14T21:10:40.947Z,3.70
2022-09-14T21:13:11.211Z,2.80
2022-09-14T21:15:42.134Z,4.60
2022-09-14T21:18:12.524Z,3.20
2022-09-14T21:20:43.016Z,4.40
2022-09-14T21:23:13.507Z,7.30
2022-09-14T21:25:43.862Z,3.50
2022-09-14T21:28:14.159Z,4.70
2022-09-14T21:30:44.517Z,6.60
2022-09-14T21:33:20.818Z,4.50
2022-09-14T21:35:52.263Z,4.80
2022-09-14T21:38:26.485Z,3.90
2022-09-14T21:40:58.413Z,6.20
2022-09-14T21:43:29.076Z,3.30
2022-09-14T21:46:01.292Z,7.00
2022-09-14T21:48:31.747Z,2.50
2022-09-14T21:51:07.352Z,4.00
2022-09-14T21:53:37.665Z,8.20
2022-09-14T21:56:08.928Z,4.00
2022-09-14T21:58:39.410Z,4.90
2022-09-14T22:01:09.987Z,3.90
2022-09-14T22:03:41.096Z,3.70
2022-09-14T22:06:16.264Z,10.00
2022-09-14T22:08:46.749Z,3.50
2022-09-14T22:11:22.881Z,4.60
2022-09-14T22:13:56.761Z,5.10
2022-09-14T22:16:28.530Z,5.60
2022-09-14T22:19:00.386Z,8.60
2022-09-14T22:21:31.847Z,6.90
2022-09-14T22:24:04.496Z,7.00
2022-09-14T22:26:36.062Z,8.80
2022-09-14T22:29:09.708Z,8.60
2022-09-14T22:31:41.242Z,9.40
2022-09-14T22:34:12.043Z,7.70
2022-09-14T22:36:42.687Z,5.90
2022-09-14T22:39:13.630Z,5.90
2022-09-14T22:41:43.945Z,5.60
2022-09-14T22:44:14.841Z,5.90
2022-09-14T22:46:46.021Z,4.50
2022-09-14T22:49:17.438Z,7.50
2022-09-14T22:51:47.786Z,5.50
2022-09-14T22:54:18.099Z,4.10
2022-09-14T22:56:48.424Z,4.40
2022-09-14T22:59:18.793Z,4.30
2022-09-14T23:01:49.237Z,4.10
2022-09-14T23:04:20.293Z,5.70
2022-09-14T23:06:51.195Z,3.80
2022-09-14T23:09:22.876Z,3.10
2022-09-14T23:11:54.471Z,2.40
2022-09-14T23:14:26.316Z,4.90
2022-09-14T23:16:58.217Z,4.30
2022-09-14T23:19:31.076Z,3.80
2022-09-14T23:22:03.213Z,3.60
2022-09-14T23:24:36.019Z,3.20
2022-09-14T23:27:08.470Z,4.80
2022-09-14T23:29:39.718Z,2.80
2022-09-14T23:32:10.903Z,4.00
2022-09-14T23:34:42.556Z,5.10
2022-09-14T23:37:14.727Z,4.20
2022-09-14T23:39:46.635Z,4.20
2022-09-14T23:42:18.261Z,3.90
2022-09-14T23:44:51.055Z,4.30
2022-09-14T23:47:23.324Z,3.90
2022-09-14T23:49:54.592Z,5.00
2022-09-14T23:52:27.291Z,7.30
2022-09-14T23:55:01.077Z,4.20
2022-09-14T23:57:33.294Z,5.60
